Time;durP1;ratioP1;P1;durP2;ratioP2;P2;SDS_P1;SDS_P2;PMS_P1;PMS_P2;Temp;Humidity;BMP_temperature;BMP_pressure;BME280_temperature;BME280_humidity;BME280_pressure;Samples;Min_cycle;Max_cycle;Signal;HPM_P1;HPM_P2
2023/12/02 00:01:38;;;;;;;38.08;21.63;;;;;;;-4.05;100.00;101140.88;10458860;28;20070;-72
2023/12/02 00:06:39;;;;;;;39.35;22.20;;;;;;;-3.86;100.00;101129.06;10458261;28;20040;-72
2023/12/02 00:11:39;;;;;;;37.20;20.23;;;;;;;-3.81;100.00;101127.00;10441206;28;20036;-72
2023/12/02 00:16:40;;;;;;;37.75;21.38;;;;;;;-3.44;100.00;101114.00;10460940;28;20106;-72
2023/12/02 00:21:40;;;;;;;38.83;22.83;;;;;;;-3.11;100.00;101111.72;10459189;28;20060;-71
2023/12/02 00:26:40;;;;;;;36.38;21.00;;;;;;;-2.84;100.00;101110.78;10456680;28;20112;-72
2023/12/02 00:31:41;;;;;;;47.58;23.52;;;;;;;-2.70;100.00;101105.38;10457205;28;20049;-72
2023/12/02 00:36:45;;;;;;;39.33;21.88;;;;;;;-2.61;100.00;101088.81;10458877;28;20036;-72
2023/12/02 00:41:45;;;;;;;42.65;24.35;;;;;;;-2.47;100.00;101130.28;10456939;28;20024;-72
2023/12/02 00:46:46;;;;;;;42.17;22.25;;;;;;;-2.45;100.00;101093.06;10459169;28;20040;-73
2023/12/02 00:51:46;;;;;;;51.47;29.67;;;;;;;-2.22;100.00;101124.09;10460536;28;20033;-72
2023/12/02 00:56:47;;;;;;;48.97;24.02;;;;;;;-2.18;100.00;101109.63;10456459;28;20037;-72
2023/12/02 01:01:47;;;;;;;42.40;23.48;;;;;;;-2.03;100.00;101122.75;10458358;28;20043;-72
2023/12/02 01:06:47;;;;;;;50.47;23.88;;;;;;;-1.98;100.00;101104.69;10458422;28;20423;-72
2023/12/02 01:11:48;;;;;;;44.22;24.13;;;;;;;-1.96;100.00;101090.34;10456432;28;20120;-73
2023/12/02 01:16:48;;;;;;;42.80;21.25;;;;;;;-1.93;100.00;101100.75;10456635;28;20098;-72
2023/12/02 01:21:49;;;;;;;43.17;21.98;;;;;;;-1.89;100.00;101096.06;10456893;28;20075;-72
2023/12/02 01:26:49;;;;;;;40.25;26.55;;;;;;;-1.90;100.00;101102.34;10455590;28;20067;-71
2023/12/02 01:31:49;;;;;;;50.70;26.85;;;;;;;-1.92;100.00;101128.13;10439115;28;20053;-72
2023/12/02 01:36:50;;;;;;;50.13;27.23;;;;;;;-1.91;100.00;101116.56;10455771;28;20564;-71
2023/12/02 01:41:50;;;;;;;40.60;24.95;;;;;;;-1.88;100.00;101121.66;10457581;28;20081;-73
2023/12/02 01:46:51;;;;;;;44.80;25.38;;;;;;;-1.86;100.00;101130.34;10456574;28;20021;-72
2023/12/02 01:51:51;;;;;;;49.03;22.90;;;;;;;-1.79;100.00;101101.53;10455578;28;20110;-73
2023/12/02 01:56:51;;;;;;;53.33;26.50;;;;;;;-1.76;100.00;101106.63;10456424;28;20552;-73
2023/12/02 02:01:52;;;;;;;40.70;23.55;;;;;;;-1.71;100.00;101097.38;10455965;28;20107;-72
2023/12/02 02:06:52;;;;;;;62.50;24.75;;;;;;;-1.73;100.00;101088.66;10455123;28;20044;-72
2023/12/02 02:11:52;;;;;;;47.30;25.30;;;;;;;-1.59;100.00;101102.75;10454856;28;20099;-72
2023/12/02 02:16:54;;;;;;;49.17;27.50;;;;;;;-1.56;100.00;101106.00;10456048;28;20099;-72
2023/12/02 02:21:54;;;;;;;47.13;28.33;;;;;;;-1.66;100.00;101118.25;10455261;28;20033;-72
2023/12/02 02:26:55;;;;;;;50.80;31.65;;;;;;;-1.67;100.00;101106.78;10452922;28;20029;-73
2023/12/02 02:31:55;;;;;;;47.65;25.10;;;;;;;-1.58;100.00;101107.06;10454165;28;20057;-72
2023/12/02 02:36:56;;;;;;;43.97;24.30;;;;;;;-1.69;100.00;101089.28;10436261;28;20033;-72
2023/12/02 02:41:56;;;;;;;48.97;26.77;;;;;;;-1.83;100.00;101119.50;10454287;28;20064;-71
2023/12/02 02:46:57;;;;;;;51.85;26.77;;;;;;;-2.03;100.00;101120.13;10453554;28;20127;-72
2023/12/02 02:51:57;;;;;;;45.13;23.65;;;;;;;-2.32;100.00;101109.78;10461671;28;20041;-73
2023/12/02 02:56:58;;;;;;;54.72;27.50;;;;;;;-2.48;100.00;101125.94;10461533;28;20029;-73
2023/12/02 03:01:58;;;;;;;47.13;25.60;;;;;;;-2.68;100.00;101110.56;10462164;28;20033;-73
2023/12/02 03:06:59;;;;;;;42.15;22.08;;;;;;;-2.86;100.00;101108.25;10462246;28;20032;-72
2023/12/02 03:11:59;;;;;;;46.13;26.40;;;;;;;-2.94;100.00;101118.50;10460561;28;20175;-71
2023/12/02 03:16:59;;;;;;;38.28;23.17;;;;;;;-2.93;100.00;101116.72;10461184;28;20040;-73
2023/12/02 03:22:01;;;;;;;44.17;23.13;;;;;;;-3.14;100.00;101117.22;10461922;28;20069;-73
2023/12/02 03:27:02;;;;;;;44.25;23.48;;;;;;;-3.24;100.00;101108.22;10459899;28;20032;-73
2023/12/02 03:32:03;;;;;;;52.75;27.88;;;;;;;-3.25;100.00;101108.28;10460772;28;20053;-73
2023/12/02 03:37:04;;;;;;;43.47;25.10;;;;;;;-3.17;100.00;101117.44;10460370;28;20127;-73
2023/12/02 03:42:04;;;;;;;47.70;23.27;;;;;;;-3.13;100.00;101129.50;10461305;28;20079;-73
2023/12/02 03:47:04;;;;;;;33.75;21.83;;;;;;;-3.18;100.00;101129.00;10462620;28;20445;-72
2023/12/02 03:52:05;;;;;;;42.35;22.15;;;;;;;-3.33;100.00;101120.25;10489612;28;20040;-74
2023/12/02 03:57:05;;;;;;;37.38;22.02;;;;;;;-3.58;100.00;101109.59;10473366;28;20037;-73
2023/12/02 04:02:06;;;;;;;37.95;21.20;;;;;;;-3.55;100.00;101125.28;10462366;28;20450;-73
2023/12/02 04:07:06;;;;;;;42.10;23.23;;;;;;;-3.46;100.00;101118.53;10461988;28;20033;-73
2023/12/02 04:12:06;;;;;;;49.53;22.33;;;;;;;-3.35;100.00;101131.91;10460213;28;20032;-73
2023/12/02 04:17:08;;;;;;;44.42;23.70;;;;;;;-3.36;100.00;101120.47;10457625;28;20083;-73
2023/12/02 04:22:08;;;;;;;45.60;23.48;;;;;;;-3.11;100.00;101140.00;10458865;28;20091;-75
2023/12/02 04:27:08;;;;;;;55.13;25.13;;;;;;;-2.95;100.00;101150.41;10459564;28;20032;-73
2023/12/02 04:32:09;;;;;;;52.85;27.90;;;;;;;-2.81;100.00;101153.84;10459319;28;20147;-74
2023/12/02 04:37:10;;;;;;;43.78;27.25;;;;;;;-2.75;100.00;101157.00;10457355;28;20031;-74
2023/12/02 04:42:10;;;;;;;42.40;24.15;;;;;;;-2.70;100.00;101161.03;10459369;28;20033;-74
2023/12/02 04:47:11;;;;;;;47.90;27.85;;;;;;;-2.60;100.00;101156.78;10456988;28;20480;-73
2023/12/02 04:52:11;;;;;;;44.33;23.83;;;;;;;-2.50;100.00;101158.81;10458656;28;20037;-73
2023/12/02 04:57:11;;;;;;;47.55;24.83;;;;;;;-2.44;100.00;101158.38;10456316;28;20137;-74
2023/12/02 05:02:12;;;;;;;52.35;27.83;;;;;;;-2.36;100.00;101156.06;10456618;28;20440;-73
2023/12/02 05:07:13;;;;;;;48.33;25.73;;;;;;;-2.30;100.00;101176.81;10460456;28;20152;-73
2023/12/02 05:12:13;;;;;;;43.47;27.30;;;;;;;-2.23;100.00;101180.75;10478214;28;20037;-73
2023/12/02 05:17:13;;;;;;;49.42;26.30;;;;;;;-2.29;100.00;101186.50;10464071;28;20057;-72
2023/12/02 05:22:14;;;;;;;54.42;27.25;;;;;;;-2.32;100.00;101184.06;10440409;28;20054;-73
2023/12/02 05:27:14;;;;;;;51.53;25.55;;;;;;;-2.30;100.00;101184.78;10456300;28;20091;-74
2023/12/02 05:32:15;;;;;;;61.92;28.73;;;;;;;-2.38;100.00;101181.81;10458236;28;20136;-74
2023/12/02 05:37:15;;;;;;;48.88;26.65;;;;;;;-2.36;100.00;101198.50;10455405;28;20064;-73
2023/12/02 05:42:16;;;;;;;51.38;25.33;;;;;;;-2.41;100.00;101197.94;10454964;28;20036;-74
2023/12/02 05:47:16;;;;;;;47.55;27.42;;;;;;;-2.53;100.00;101210.25;10456777;28;20036;-73
2023/12/02 05:52:17;;;;;;;54.63;26.38;;;;;;;-2.66;100.00;101218.19;10456198;28;20033;-74
2023/12/02 05:57:17;;;;;;;42.17;26.88;;;;;;;-2.75;100.00;101216.16;10454596;28;20060;-72
2023/12/02 06:02:18;;;;;;;45.50;26.48;;;;;;;-2.94;100.00;101205.94;10454476;28;20037;-73
2023/12/02 06:07:18;;;;;;;48.95;27.08;;;;;;;-2.88;100.00;101210.84;10453906;28;20029;-73
2023/12/02 06:12:18;;;;;;;47.80;27.67;;;;;;;-2.87;100.00;101217.84;10437171;28;20503;-73
2023/12/02 06:17:19;;;;;;;52.97;28.58;;;;;;;-2.90;100.00;101222.50;10454090;28;20056;-73
2023/12/02 06:22:21;;;;;;;55.65;27.58;;;;;;;-2.97;100.00;101226.50;10454326;28;20395;-73
2023/12/02 06:27:21;;;;;;;59.42;31.80;;;;;;;-3.02;100.00;101224.19;10454997;28;20073;-73
2023/12/02 06:32:21;;;;;;;51.95;26.50;;;;;;;-3.01;100.00;101232.97;10454086;28;20381;-73
2023/12/02 06:37:22;;;;;;;52.67;28.67;;;;;;;-3.10;100.00;101213.22;10454274;28;20029;-74
2023/12/02 06:42:22;;;;;;;42.90;23.83;;;;;;;-3.04;100.00;101236.66;10452813;28;20048;-73
2023/12/02 06:47:22;;;;;;;35.47;24.35;;;;;;;-3.19;100.00;101245.59;10454945;28;20432;-74
2023/12/02 06:52:23;;;;;;;62.90;29.92;;;;;;;-3.19;100.00;101253.56;10454175;28;20047;-73
2023/12/02 06:57:23;;;;;;;54.75;28.52;;;;;;;-3.23;100.00;101246.78;10453920;28;20124;-73
2023/12/02 07:02:23;;;;;;;52.75;29.60;;;;;;;-3.15;100.00;101263.03;10452360;28;20033;-73
2023/12/02 07:07:24;;;;;;;48.67;27.40;;;;;;;-3.16;100.00;101259.53;10454166;28;20102;-72
2023/12/02 07:12:24;;;;;;;46.22;28.25;;;;;;;-3.11;100.00;101275.09;10455603;28;20037;-74
2023/12/02 07:17:25;;;;;;;49.05;30.58;;;;;;;-3.08;100.00;101277.56;10453310;28;20487;-73
2023/12/02 07:22:26;;;;;;;61.72;30.20;;;;;;;-2.99;100.00;101286.72;10453629;28;20037;-72
2023/12/02 07:27:27;;;;;;;63.65;30.73;;;;;;;-2.96;100.00;101291.81;10455062;28;20029;-73
2023/12/02 07:32:27;;;;;;;44.97;23.10;;;;;;;-3.03;100.00;101301.97;10453891;28;20562;-73
2023/12/02 07:37:27;;;;;;;48.45;29.38;;;;;;;-2.85;100.00;101308.69;10456713;28;20037;-73
2023/12/02 07:42:28;;;;;;;55.95;29.42;;;;;;;-2.75;100.00;101310.72;10459794;28;20029;-73
2023/12/02 07:47:28;;;;;;;71.28;30.58;;;;;;;-2.69;100.00;101319.13;10459163;28;20100;-72
2023/12/02 07:52:29;;;;;;;58.00;29.55;;;;;;;-2.61;100.00;101303.56;10460216;28;20044;-73
2023/12/02 07:57:29;;;;;;;65.38;31.00;;;;;;;-2.32;100.00;101324.63;10459974;28;20078;-72
2023/12/02 08:02:30;;;;;;;67.07;31.75;;;;;;;-2.13;100.00;101318.91;10459665;28;20068;-72
2023/12/02 08:07:30;;;;;;;62.25;31.02;;;;;;;-1.73;100.00;101330.25;10459512;28;20120;-73
2023/12/02 08:12:31;;;;;;;66.45;36.95;;;;;;;-1.26;100.00;101336.66;10458125;28;20036;-72
2023/12/02 08:17:31;;;;;;;67.55;33.33;;;;;;;-0.77;100.00;101341.03;10458816;28;20420;-72
2023/12/02 08:22:32;;;;;;;72.95;35.83;;;;;;;-0.40;100.00;101343.63;10458842;28;20082;-73
2023/12/02 08:27:32;;;;;;;77.63;39.00;;;;;;;-0.07;100.00;101347.34;10459458;28;20104;-75
2023/12/02 08:32:32;;;;;;;76.53;39.42;;;;;;;0.29;100.00;101358.78;10459417;28;20072;-71
2023/12/02 08:37:33;;;;;;;75.72;42.03;;;;;;;0.58;100.00;101362.69;10458828;28;20119;-71
2023/12/02 08:42:33;;;;;;;82.63;43.05;;;;;;;0.92;100.00;101362.63;10458035;28;20037;-73
2023/12/02 08:47:34;;;;;;;83.40;45.40;;;;;;;1.32;100.00;101362.91;10458308;28;20037;-72
2023/12/02 08:52:35;;;;;;;80.00;41.88;;;;;;;1.56;100.00;101362.72;10459592;28;20037;-73
2023/12/02 08:57:35;;;;;;;73.18;41.00;;;;;;;1.49;100.00;101366.84;10457940;28;20033;-71
2023/12/02 09:02:35;;;;;;;73.80;39.60;;;;;;;0.91;100.00;101374.28;10456989;28;20033;-72
2023/12/02 09:07:36;;;;;;;70.15;39.72;;;;;;;1.26;100.00;101370.56;10457013;28;20424;-72
2023/12/02 09:12:36;;;;;;;76.63;41.05;;;;;;;0.83;100.00;101376.69;10457347;28;20064;-72
2023/12/02 09:18:04;;;;;;;56.70;35.35;;;;;;;0.51;100.00;101381.91;10438740;28;20079;-73
2023/12/02 09:23:06;;;;;;;67.85;35.10;;;;;;;0.35;100.00;101390.25;10456333;28;20454;-73
2023/12/02 09:28:06;;;;;;;53.58;32.60;;;;;;;0.39;100.00;101394.41;10456538;28;20028;-72
2023/12/02 09:33:07;;;;;;;63.70;36.93;;;;;;;0.34;100.00;101397.41;10455995;28;20071;-72
2023/12/02 09:38:08;;;;;;;51.83;32.30;;;;;;;0.25;100.00;101384.78;10438062;28;20313;-73
2023/12/02 09:43:28;;;;;;;62.67;35.22;;;;;;;0.76;100.00;101403.00;10454188;28;20081;-72
2023/12/02 09:48:31;;;;;;;69.18;36.15;;;;;;;1.45;100.00;101401.94;10454395;28;20044;-72
2023/12/02 09:53:39;;;;;;;68.72;39.03;;;;;;;2.18;100.00;101410.97;10437484;28;20072;-71
2023/12/02 09:58:42;;;;;;;60.03;33.03;;;;;;;2.58;100.00;101410.19;10437432;28;20101;-73
2023/12/02 10:03:51;;;;;;;59.55;34.00;;;;;;;3.02;100.00;101395.59;10455456;28;20078;-72
2023/12/02 10:08:54;;;;;;;65.05;34.53;;;;;;;3.53;100.00;101399.09;10454556;28;20037;-73
2023/12/02 10:13:59;;;;;;;56.97;35.35;;;;;;;4.03;100.00;101415.88;10453577;28;20041;-72
2023/12/02 10:19:00;;;;;;;54.75;31.98;;;;;;;4.36;100.00;101414.53;10455005;28;20086;-72
2023/12/02 10:24:02;;;;;;;44.45;24.55;;;;;;;4.47;100.00;101413.56;10452918;28;20123;-71
2023/12/02 10:29:22;;;;;;;34.05;24.98;;;;;;;4.75;100.00;101413.59;10454206;28;20036;-71
2023/12/02 10:34:52;;;;;;;38.88;24.48;;;;;;;5.12;100.00;101417.09;10452445;28;20057;-70
2023/12/02 10:39:53;;;;;;;34.05;23.17;;;;;;;4.92;100.00;101412.81;10452056;28;20055;-73
2023/12/02 10:44:59;;;;;;;48.88;25.00;;;;;;;5.27;100.00;101408.56;10436673;28;20514;-72
2023/12/02 10:50:00;;;;;;;36.38;23.02;;;;;;;5.49;100.00;101405.44;10454804;28;20037;-72
2023/12/02 10:55:02;;;;;;;31.85;20.50;;;;;;;5.13;100.00;101401.81;10456931;28;20041;-74
2023/12/02 11:00:14;;;;;;;31.75;21.92;;;;;;;4.95;100.00;101399.09;10455383;28;20059;-71
2023/12/02 11:05:28;;;;;;;38.38;22.73;;;;;;;4.93;100.00;101400.25;10438466;28;20025;-71
2023/12/02 11:10:46;;;;;;;33.47;20.67;;;;;;;4.88;100.00;101395.31;10457141;28;20195;-72
2023/12/02 11:16:15;;;;;;;31.80;18.80;;;;;;;5.10;100.00;101404.81;10462447;28;20033;-73
2023/12/02 11:21:27;;;;;;;32.20;21.55;;;;;;;5.06;100.00;101395.38;10462651;28;20029;-71
2023/12/02 11:26:36;;;;;;;35.72;23.80;;;;;;;4.31;100.00;101405.25;10462272;28;20475;-71
2023/12/02 11:32:10;;;;;;;36.75;22.55;;;;;;;3.60;100.00;101408.25;10462284;28;20116;-71
2023/12/02 11:37:31;;;;;;;44.00;26.13;;;;;;;3.12;100.00;101423.22;10461772;28;20029;-71
2023/12/02 11:42:36;;;;;;;46.33;27.95;;;;;;;2.80;100.00;101420.72;10462177;28;20025;-72
2023/12/02 11:47:48;;;;;;;52.97;29.33;;;;;;;2.84;100.00;101414.13;10444337;28;20032;-71
2023/12/02 11:53:04;;;;;;;56.40;28.38;;;;;;;2.68;100.00;101422.66;10460923;28;20057;-72
2023/12/02 11:58:22;;;;;;;46.60;29.40;;;;;;;2.88;100.00;101426.25;10461445;28;20106;-73
2023/12/02 12:03:36;;;;;;;52.92;30.55;;;;;;;2.85;100.00;101410.47;10460621;28;20472;-72
2023/12/02 12:08:43;;;;;;;43.40;27.92;;;;;;;3.02;100.00;101417.84;10460442;28;20025;-70
2023/12/02 12:13:45;;;;;;;44.90;27.92;;;;;;;3.14;100.00;101425.78;10443656;28;20472;-71
2023/12/02 12:18:45;;;;;;;44.10;24.67;;;;;;;3.18;100.00;101413.81;10458915;28;20116;-71
2023/12/02 12:23:46;;;;;;;52.42;30.98;;;;;;;3.08;100.00;101429.84;10460325;28;20132;-71
2023/12/02 12:28:47;;;;;;;52.47;27.98;;;;;;;2.77;100.00;101431.69;10462154;28;20036;-72
2023/12/02 12:33:50;;;;;;;53.38;28.30;;;;;;;2.42;100.00;101424.03;10491197;28;20057;-72
2023/12/02 12:38:50;;;;;;;48.45;27.17;;;;;;;2.69;100.00;101432.34;10462476;28;20029;-71
2023/12/02 12:43:53;;;;;;;44.75;30.00;;;;;;;2.73;100.00;101431.09;10442156;28;20411;-71
2023/12/02 12:48:54;;;;;;;49.03;28.75;;;;;;;2.70;100.00;101423.34;10458870;28;20044;-72
2023/12/02 12:54:02;;;;;;;45.03;29.40;;;;;;;2.82;100.00;101434.81;10459062;28;20037;-72
2023/12/02 12:59:02;;;;;;;45.15;28.45;;;;;;;2.89;100.00;101427.94;10457449;28;20103;-70
2023/12/02 13:04:22;;;;;;;53.25;32.10;;;;;;;2.90;100.00;101440.31;10405768;28;20140;-71
2023/12/02 13:09:28;;;;;;;48.20;28.17;;;;;;;2.93;100.00;101434.69;10375625;28;20048;-71
2023/12/02 13:14:33;;;;;;;51.50;33.63;;;;;;;2.99;100.00;101444.88;10376083;28;20074;-73
2023/12/02 13:19:34;;;;;;;43.33;29.33;;;;;;;2.99;100.00;101438.66;10370709;28;20481;-71
2023/12/02 13:24:39;;;;;;;52.35;31.67;;;;;;;3.02;100.00;101420.50;10357097;28;20045;-71
2023/12/02 13:29:40;;;;;;;55.13;33.10;;;;;;;3.14;100.00;101429.28;10345318;28;20381;-71
2023/12/02 13:34:48;;;;;;;59.50;34.35;;;;;;;3.28;100.00;101440.59;10372157;28;20065;-72
2023/12/02 13:39:52;;;;;;;50.97;27.63;;;;;;;3.32;100.00;101445.56;10373216;28;20069;-71
2023/12/02 13:44:58;;;;;;;44.08;27.67;;;;;;;3.35;100.00;101437.25;10357629;28;20417;-71
2023/12/02 13:49:59;;;;;;;42.72;27.65;;;;;;;3.38;100.00;101439.66;10356965;28;20068;-72
2023/12/02 13:55:19;;;;;;;41.88;23.20;;;;;;;3.36;100.00;101451.47;10352852;28;20120;-72
2023/12/02 14:00:23;;;;;;;43.85;24.27;;;;;;;3.36;100.00;101452.31;10374983;28;20042;-70
2023/12/02 14:05:26;;;;;;;36.95;22.42;;;;;;;3.41;100.00;101460.78;10356437;28;20054;-71
2023/12/02 14:10:27;;;;;;;34.67;22.20;;;;;;;3.45;100.00;101464.06;10371664;28;20045;-73
2023/12/02 14:15:33;;;;;;;37.70;22.42;;;;;;;3.54;100.00;101463.19;10339153;28;20069;-71
2023/12/02 14:20:37;;;;;;;40.60;22.48;;;;;;;3.58;100.00;101461.13;10372874;28;20073;-71
2023/12/02 14:26:16;;;;;;;39.05;22.77;;;;;;;3.31;100.00;101475.13;10371483;28;20438;-72
2023/12/02 14:31:38;;;;;;;36.58;21.60;;;;;;;2.96;100.00;101460.34;9883812;28;21091;-72
2023/12/02 14:37:33;;;;;;;33.72;20.10;;;;;;;2.80;100.00;101484.91;10233372;28;20402;-71
2023/12/02 14:43:16;;;;;;;30.73;20.58;;;;;;;2.77;100.00;101491.34;10288590;28;20054;-73
2023/12/02 14:48:17;;;;;;;28.50;20.05;;;;;;;2.98;100.00;101501.19;10294088;28;20050;-71
2023/12/02 14:53:17;;;;;;;28.60;19.17;;;;;;;3.21;100.00;101504.53;10300449;28;20109;-71
2023/12/02 14:58:18;;;;;;;29.77;17.92;;;;;;;3.17;100.00;101511.16;10340078;28;20499;-71
2023/12/02 15:03:19;;;;;;;32.90;17.30;;;;;;;3.00;100.00;101508.13;10339929;28;20124;-70
2023/12/02 15:08:19;;;;;;;33.47;17.63;;;;;;;2.85;100.00;101512.13;10339492;28;20034;-72
2023/12/02 15:13:22;;;;;;;29.02;17.13;;;;;;;2.73;100.00;101519.34;10338078;28;20026;-72
2023/12/02 15:18:28;;;;;;;25.10;17.27;;;;;;;2.74;100.00;101520.19;10337741;28;20034;-71
2023/12/02 15:23:31;;;;;;;30.38;19.73;;;;;;;2.77;100.00;101531.47;10337009;28;20069;-72
2023/12/02 15:28:34;;;;;;;27.58;18.00;;;;;;;2.78;100.00;101532.34;10339581;28;20058;-72
2023/12/02 15:33:50;;;;;;;26.02;16.98;;;;;;;2.80;100.00;101541.91;10338828;28;20050;-72
2023/12/02 15:38:52;;;;;;;24.15;17.05;;;;;;;2.75;100.00;101560.19;10339095;28;20042;-70
2023/12/02 15:43:56;;;;;;;28.63;18.05;;;;;;;2.77;100.00;101554.69;10299449;28;20050;-70
2023/12/02 15:49:00;;;;;;;23.60;18.35;;;;;;;2.87;100.00;101562.78;10320552;28;20046;-71
2023/12/02 15:54:03;;;;;;;32.83;20.67;;;;;;;2.94;100.00;101572.00;10338737;28;20041;-73
2023/12/02 15:59:03;;;;;;;26.70;18.27;;;;;;;3.11;100.00;101589.28;10336752;28;20030;-71
2023/12/02 16:04:03;;;;;;;21.80;18.00;;;;;;;3.17;100.00;101591.44;10336290;28;20490;-70
2023/12/02 16:09:04;;;;;;;23.80;14.38;;;;;;;3.07;100.00;101602.09;10336272;28;20084;-70
2023/12/02 16:14:05;;;;;;;20.35;14.13;;;;;;;3.03;100.00;101604.16;10336648;28;20034;-73
2023/12/02 16:19:06;;;;;;;29.73;14.73;;;;;;;3.08;100.00;101613.63;10336802;28;20079;-71
2023/12/02 16:24:07;;;;;;;17.45;11.68;;;;;;;3.06;100.00;101618.25;10336121;28;20034;-72
2023/12/02 16:29:07;;;;;;;24.40;13.65;;;;;;;3.07;100.00;101622.66;10336009;28;20041;-73
2023/12/02 16:34:08;;;;;;;15.05;10.32;;;;;;;3.01;100.00;101624.00;10336148;28;20070;-73
2023/12/02 16:39:15;;;;;;;14.40;11.15;;;;;;;2.86;100.00;101627.97;10336836;28;20038;-72
2023/12/02 16:44:16;;;;;;;11.50;8.68;;;;;;;2.65;100.00;101630.59;10319937;28;20466;-72
2023/12/02 16:49:17;;;;;;;10.48;9.00;;;;;;;2.53;100.00;101644.03;10336508;28;20034;-72
2023/12/02 16:54:18;;;;;;;9.15;8.40;;;;;;;2.55;100.00;101650.13;10335439;28;20081;-72
2023/12/02 16:59:43;;;;;;;11.13;8.55;;;;;;;2.60;100.00;101647.06;10337476;28;20027;-71
2023/12/02 17:04:43;;;;;;;9.60;8.52;;;;;;;2.67;100.00;101664.28;10346596;28;20109;-73
2023/12/02 17:09:45;;;;;;;14.65;9.40;;;;;;;2.70;100.00;101661.34;10358002;28;20034;-73
2023/12/02 17:14:46;;;;;;;17.17;8.70;;;;;;;2.76;100.00;101681.38;10364277;28;20030;-73
2023/12/02 17:19:47;;;;;;;10.20;9.20;;;;;;;2.62;100.00;101676.34;10336906;28;20130;-74
2023/12/02 17:24:48;;;;;;;13.52;9.23;;;;;;;2.66;100.00;101688.50;10336109;28;20076;-75
2023/12/02 17:29:48;;;;;;;15.85;11.15;;;;;;;2.56;100.00;101680.38;10336052;28;20034;-73
2023/12/02 17:34:48;;;;;;;19.80;9.00;;;;;;;2.67;100.00;101691.03;10332973;28;20530;-73
2023/12/02 17:39:49;;;;;;;18.15;9.73;;;;;;;2.76;100.00;101700.97;10333179;28;20050;-73
2023/12/02 17:44:49;;;;;;;13.85;10.10;;;;;;;2.80;100.00;101699.72;10335048;28;20046;-74
2023/12/02 17:49:50;;;;;;;14.60;9.75;;;;;;;2.82;100.00;101706.78;10331903;28;20108;-74
2023/12/02 17:54:50;;;;;;;15.45;11.18;;;;;;;2.87;100.00;101710.78;10335126;28;20046;-73
2023/12/02 17:59:52;;;;;;;13.73;10.18;;;;;;;2.83;100.00;101714.66;10333222;28;20034;-73
2023/12/02 18:04:52;;;;;;;18.67;14.52;;;;;;;2.80;100.00;101712.25;10334216;28;20446;-73
2023/12/02 18:09:52;;;;;;;21.30;14.95;;;;;;;2.78;100.00;101708.88;10333761;28;20046;-71
2023/12/02 18:14:53;;;;;;;19.20;14.00;;;;;;;2.77;100.00;101712.50;10332705;28;20415;-73
2023/12/02 18:19:53;;;;;;;17.33;13.27;;;;;;;2.76;100.00;101708.97;10332560;28;20046;-72
2023/12/02 18:24:54;;;;;;;16.58;13.27;;;;;;;2.83;100.00;101717.34;10315491;28;20350;-72
2023/12/02 18:29:54;;;;;;;14.60;10.27;;;;;;;2.67;100.00;101717.75;10315954;28;20126;-75
2023/12/02 18:34:54;;;;;;;9.30;5.88;;;;;;;2.62;100.00;101706.63;10331892;28;20059;-74
2023/12/02 18:39:55;;;;;;;3.40;3.10;;;;;;;2.54;100.00;101707.22;10334622;28;20045;-73
2023/12/02 18:44:55;;;;;;;5.28;3.80;;;;;;;2.41;100.00;101709.19;10332311;28;20049;-73
2023/12/02 18:49:56;;;;;;;3.95;3.58;;;;;;;2.29;100.00;101712.88;10331694;28;20037;-71
2023/12/02 18:54:56;;;;;;;10.63;9.13;;;;;;;2.25;100.00;101719.44;10332914;28;20038;-72
2023/12/02 19:00:06;;;;;;;18.08;11.00;;;;;;;2.17;100.00;101713.84;10336069;28;20378;-72
2023/12/02 19:05:07;;;;;;;15.55;12.60;;;;;;;2.15;100.00;101729.16;10335616;28;20057;-73
2023/12/02 19:10:07;;;;;;;18.98;10.52;;;;;;;2.13;100.00;101733.78;10333276;28;20113;-73
2023/12/02 19:15:08;;;;;;;14.02;11.55;;;;;;;2.14;100.00;101740.81;10332791;28;20101;-73
2023/12/02 19:20:09;;;;;;;14.65;10.85;;;;;;;2.20;100.00;101743.88;10330544;28;20034;-74
2023/12/02 19:25:09;;;;;;;12.90;9.55;;;;;;;2.30;100.00;101742.16;10315437;28;20042;-77
2023/12/02 19:30:10;;;;;;;14.38;10.82;;;;;;;2.39;100.00;101748.56;10332681;28;20031;-75
2023/12/02 19:35:13;;;;;;;15.88;10.85;;;;;;;2.37;100.00;101739.00;10337284;28;20082;-75
2023/12/02 19:40:13;;;;;;;12.57;9.57;;;;;;;2.24;100.00;101736.44;10338959;28;20121;-74
2023/12/02 19:45:14;;;;;;;14.90;10.35;;;;;;;2.33;100.00;101741.06;10338008;28;20038;-74
2023/12/02 19:50:15;;;;;;;18.10;12.73;;;;;;;2.31;100.00;101743.84;10338501;28;20528;-72
2023/12/02 19:55:15;;;;;;;21.08;14.75;;;;;;;2.35;100.00;101738.25;10337950;28;20134;-72
2023/12/02 20:00:16;;;;;;;24.70;15.27;;;;;;;2.33;100.00;101741.06;10338087;28;20125;-73
2023/12/02 20:05:18;;;;;;;35.20;21.90;;;;;;;2.31;100.00;101749.19;10304515;28;20038;-72
2023/12/02 20:10:18;;;;;;;29.75;24.35;;;;;;;2.24;100.00;101752.50;10336878;28;20061;-73
2023/12/02 20:15:19;;;;;;;27.77;22.40;;;;;;;2.29;100.00;101755.63;10337195;28;20038;-71
2023/12/02 20:20:19;;;;;;;33.97;23.70;;;;;;;2.30;100.00;101752.00;10320638;28;20050;-73
2023/12/02 20:25:20;;;;;;;34.28;23.77;;;;;;;2.28;100.00;101756.59;10336811;28;20487;-71
2023/12/02 20:30:20;;;;;;;27.48;20.33;;;;;;;2.34;100.00;101766.81;10337194;28;20065;-74
2023/12/02 20:35:21;;;;;;;26.17;20.20;;;;;;;2.38;100.00;101778.94;10335917;28;20054;-74
2023/12/02 20:40:21;;;;;;;28.25;22.23;;;;;;;2.50;100.00;101787.81;10336901;28;20406;-75
2023/12/02 20:45:21;;;;;;;21.52;18.25;;;;;;;2.50;100.00;101777.13;10337833;28;20046;-73
2023/12/02 20:50:22;;;;;;;20.95;17.13;;;;;;;2.38;100.00;101792.31;10337705;28;20450;-73
2023/12/02 20:55:22;;;;;;;16.67;14.63;;;;;;;2.37;100.00;101790.63;10336816;28;20053;-73
2023/12/02 21:00:23;;;;;;;15.88;14.07;;;;;;;2.06;100.00;101786.84;10337371;28;20057;-74
2023/12/02 21:05:23;;;;;;;18.00;14.18;;;;;;;1.87;100.00;101792.78;10336319;28;20121;-75
2023/12/02 21:10:24;;;;;;;17.15;14.07;;;;;;;1.90;100.00;101789.84;10335972;28;20098;-72
2023/12/02 21:15:25;;;;;;;25.63;17.55;;;;;;;1.96;100.00;101786.72;10335330;28;20034;-74
2023/12/02 21:20:26;;;;;;;19.80;16.52;;;;;;;2.00;100.00;101777.47;10333526;28;20035;-70
2023/12/02 21:25:29;;;;;;;20.70;16.92;;;;;;;1.91;100.00;101767.50;10334263;28;20061;-71
2023/12/02 21:30:34;;;;;;;25.08;18.15;;;;;;;1.98;100.00;101787.47;10332924;28;20110;-73
2023/12/02 21:35:35;;;;;;;38.35;20.02;;;;;;;1.95;100.00;101779.69;10335532;28;20054;-73
2023/12/02 21:40:36;;;;;;;26.35;19.25;;;;;;;2.00;100.00;101785.50;10333304;28;20469;-72
2023/12/02 21:46:06;;;;;;;30.48;20.20;;;;;;;2.00;100.00;101779.31;10333088;28;20133;-71
2023/12/02 21:51:09;;;;;;;35.78;22.50;;;;;;;2.02;100.00;101780.91;10333389;28;20054;-72
2023/12/02 21:56:10;;;;;;;33.67;21.42;;;;;;;2.00;100.00;101773.97;10315796;28;20041;-73
2023/12/02 22:01:11;;;;;;;33.83;21.20;;;;;;;1.89;100.00;101780.16;10331766;28;20042;-72
2023/12/02 22:06:39;;;;;;;30.45;20.83;;;;;;;1.80;100.00;101783.53;10309008;28;20038;-73
2023/12/02 22:11:40;;;;;;;21.15;16.42;;;;;;;1.52;100.00;101777.63;10348813;28;20035;-73
2023/12/02 22:16:42;;;;;;;24.77;17.60;;;;;;;1.38;100.00;101791.19;10346225;28;20042;-70
2023/12/02 22:21:42;;;;;;;22.02;15.90;;;;;;;1.42;100.00;101790.00;10332508;28;20085;-71
2023/12/02 22:26:43;;;;;;;28.13;18.17;;;;;;;1.33;100.00;101796.88;10332608;28;20058;-71
2023/12/02 22:31:43;;;;;;;27.00;19.00;;;;;;;1.38;100.00;101802.72;10333131;28;20380;-73
2023/12/02 22:36:46;;;;;;;35.45;23.20;;;;;;;1.49;100.00;101809.06;10333634;28;20066;-73